createdAt,value
2022-09-10T00:00:41.534Z,100322.53
2022-09-10T00:05:48.367Z,100325.06
2022-09-10T00:10:54.450Z,100319.84
2022-09-10T00:15:59.471Z,100327.50
2022-09-10T00:21:08.091Z,100331.00
2022-09-10T00:26:18.243Z,100337.22
2022-09-10T00:31:23.655Z,100329.38
2022-09-10T00:36:28.822Z,100323.28
2022-09-10T00:41:36.160Z,100322.25
2022-09-10T00:46:44.744Z,100324.28
2022-09-10T00:51:50.394Z,100329.03
2022-09-10T00:57:00.013Z,100341.75
2022-09-10T01:02:05.029Z,100339.78
2022-09-10T01:07:11.254Z,100330.06
2022-09-10T01:12:32.105Z,100338.91
2022-09-10T01:17:52.419Z,100325.41
2022-09-10T01:23:17.779Z,100335.81
2022-09-10T01:28:30.184Z,100341.59
2022-09-10T01:33:37.971Z,100344.13
2022-09-10T01:38:43.987Z,100341.28
2022-09-10T01:43:49.168Z,100342.16
2022-09-10T01:49:15.621Z,100349.13
2022-09-10T01:54:29.392Z,100335.13
2022-09-10T01:59:42.735Z,100339.59
2022-09-10T02:04:48.234Z,100333.59
2022-09-10T02:09:53.057Z,100329.25
2022-09-10T02:14:59.064Z,100338.59
2022-09-10T02:20:04.962Z,100335.19
2022-09-10T02:25:09.998Z,100331.63
2022-09-10T02:30:16.979Z,100331.63
2022-09-10T02:35:20.902Z,100328.84
2022-09-10T02:40:25.231Z,100320.13
2022-09-10T02:45:30.861Z,100321.16
2022-09-10T02:50:35.367Z,100317.44
2022-09-10T02:55:39.663Z,100318.31
2022-09-10T03:00:46.533Z,100319.13
2022-09-10T03:05:50.742Z,100325.06
2022-09-10T03:10:55.337Z,100326.75
2022-09-10T03:16:01.134Z,100330.69
2022-09-10T03:21:13.946Z,100320.22
2022-09-10T03:26:19.530Z,100329.78
2022-09-10T03:31:24.751Z,100334.00
2022-09-10T03:36:30.202Z,100331.94
2022-09-10T03:41:34.226Z,100329.09
2022-09-10T03:46:39.878Z,100336.00
2022-09-10T03:51:43.221Z,100329.63
2022-09-10T03:56:47.469Z,100326.75
2022-09-10T04:01:53.148Z,100332.25
2022-09-10T04:06:57.411Z,100328.78
2022-09-10T04:12:01.123Z,100322.09
2022-09-10T04:17:06.840Z,100317.66
2022-09-10T04:22:10.257Z,100317.81
2022-09-10T04:27:14.670Z,100323.72
2022-09-10T04:32:19.485Z,100324.94
2022-09-10T04:37:23.355Z,100331.75
2022-09-10T04:42:26.794Z,100324.41
2022-09-10T04:47:32.402Z,100335.59
2022-09-10T04:52:36.139Z,100331.50
2022-09-10T04:57:40.351Z,100342.16
2022-09-10T05:02:46.610Z,100342.56
2022-09-10T05:07:50.511Z,100335.63
2022-09-10T05:12:53.967Z,100335.81
2022-09-10T05:18:00.254Z,100328.63
2022-09-10T05:23:03.775Z,100329.06
2022-09-10T05:28:07.400Z,100340.69
2022-09-10T05:33:12.856Z,100347.69
2022-09-10T05:38:16.920Z,100343.56
2022-09-10T05:43:20.820Z,100335.91
2022-09-10T05:48:25.821Z,100339.91
2022-09-10T05:53:29.236Z,100341.41
2022-09-10T05:58:35.289Z,100339.59
2022-09-10T06:03:40.598Z,100327.28
2022-09-10T06:08:44.041Z,100337.56
2022-09-10T06:13:47.646Z,100334.19
2022-09-10T06:18:53.800Z,100329.34
2022-09-10T06:23:57.160Z,100324.31
2022-09-10T06:29:00.850Z,100328.59
2022-09-10T06:34:05.705Z,100331.31
2022-09-10T06:39:10.821Z,100327.97
2022-09-10T06:44:14.455Z,100321.06
2022-09-10T06:49:19.567Z,100325.44
2022-09-10T06:54:23.026Z,100318.72
2022-09-10T06:59:26.418Z,100323.84
2022-09-10T07:04:32.161Z,100320.81
2022-09-10T07:09:36.674Z,100305.31
2022-09-10T07:14:41.182Z,100317.09
2022-09-10T07:19:46.732Z,100318.84
2022-09-10T07:24:51.814Z,100308.69
2022-09-10T07:29:56.732Z,100300.56
2022-09-10T07:35:02.006Z,100306.81
2022-09-10T07:40:08.552Z,100307.75
2022-09-10T07:45:15.910Z,100293.72
2022-09-10T07:50:22.845Z,100301.56
2022-09-10T07:55:26.556Z,100295.88
2022-09-10T08:00:31.287Z,100292.28
2022-09-10T08:05:38.468Z,100281.25
2022-09-10T08:10:42.846Z,100283.97
2022-09-10T08:15:48.520Z,100275.78
2022-09-10T08:20:57.355Z,100252.13
2022-09-10T08:26:01.552Z,100260.78
2022-09-10T08:31:09.554Z,100253.84
2022-09-10T08:36:17.830Z,100252.34
2022-09-10T08:41:30.557Z,100240.72
2022-09-10T08:46:39.545Z,100241.84
2022-09-10T08:51:50.955Z,100227.34
2022-09-10T08:56:59.272Z,100242.03
2022-09-10T09:02:37.903Z,100220.63
2022-09-10T09:07:43.509Z,100219.81
2022-09-10T09:13:00.121Z,100218.47
2022-09-10T09:18:18.682Z,100207.81
2022-09-10T09:23:27.076Z,100205.34
2022-09-10T09:28:38.806Z,100199.03
2022-09-10T09:33:43.040Z,100198.94
2022-09-10T09:38:52.499Z,100202.13
2022-09-10T09:44:00.075Z,100196.94
2022-09-10T09:49:05.942Z,100199.19
2022-09-10T09:54:56.625Z,100196.16
2022-09-10T09:59:42.700Z,100191.06
2022-09-10T10:04:56.074Z,100180.84
2022-09-10T10:10:03.028Z,100173.34
2022-09-10T10:15:36.920Z,100167.69
2022-09-10T10:20:41.502Z,100159.06
2022-09-10T10:25:50.389Z,100156.81
2022-09-10T10:30:56.720Z,100156.03
2022-09-10T10:36:10.210Z,100158.53
2022-09-10T10:41:54.875Z,100155.19
2022-09-10T10:47:17.864Z,100153.53
2022-09-10T10:52:30.288Z,100138.03
2022-09-10T10:57:59.545Z,100123.22
2022-09-10T11:03:07.094Z,100123.00
2022-09-10T11:08:20.682Z,100113.78
2022-09-10T11:13:32.002Z,100106.09
2022-09-10T11:18:42.914Z,100104.59
2022-09-10T11:23:52.368Z,100093.75
2022-09-10T11:29:05.638Z,100054.50
2022-09-10T11:34:16.264Z,100079.16
2022-09-10T11:39:26.623Z,100080.59
2022-09-10T11:44:42.148Z,100073.47
2022-09-10T11:49:52.757Z,100064.81
2022-09-10T11:54:57.773Z,100057.44
2022-09-10T12:00:12.819Z,100055.03
2022-09-10T12:05:24.986Z,100048.47
2022-09-10T12:10:36.428Z,100033.81
2022-09-10T12:15:42.400Z,100033.06
2022-09-10T12:20:53.506Z,100024.28
2022-09-10T12:26:03.563Z,100013.88
2022-09-10T12:31:09.019Z,100021.28
2022-09-10T12:36:14.581Z,100019.25
2022-09-10T12:41:57.487Z,100004.28
2022-09-10T12:47:44.267Z,100008.34
2022-09-10T12:53:05.060Z,99994.09
2022-09-10T12:58:26.080Z,99990.63
2022-09-10T13:03:32.370Z,99990.84
2022-09-10T13:08:42.402Z,99978.53
2022-09-10T13:13:52.236Z,99982.06
2022-09-10T13:19:36.041Z,99967.69
2022-09-10T13:25:00.974Z,99952.22
2022-09-10T13:30:12.497Z,99945.88
2022-09-10T13:35:53.275Z,99949.34
2022-09-10T13:41:16.427Z,99930.22
2022-09-10T13:46:29.391Z,99937.53
2022-09-10T13:51:40.144Z,99934.84
2022-09-10T13:56:45.858Z,99934.25
2022-09-10T14:01:51.246Z,99932.22
2022-09-10T14:06:59.981Z,99927.16
2022-09-10T14:12:09.493Z,99929.34
2022-09-10T14:17:18.244Z,99927.47
2022-09-10T14:22:26.143Z,99920.72
2022-09-10T14:27:32.447Z,99910.25
2022-09-10T14:32:37.498Z,99905.03
2022-09-10T14:37:43.577Z,99904.38
2022-09-10T14:42:48.453Z,99904.50
2022-09-10T14:47:54.509Z,99895.78
2022-09-10T14:52:59.940Z,99888.75
2022-09-10T14:58:04.194Z,99891.44
2022-09-10T15:03:07.931Z,99888.00
2022-09-10T15:08:13.709Z,99874.38
2022-09-10T15:13:19.204Z,99878.97
2022-09-10T15:18:23.912Z,99881.22
2022-09-10T15:23:29.416Z,99878.06
2022-09-10T15:28:34.522Z,99887.06
2022-09-10T15:33:38.084Z,99880.38
2022-09-10T15:38:43.687Z,99881.50
2022-09-10T15:43:47.923Z,99872.22
2022-09-10T15:48:53.297Z,99872.56
2022-09-10T15:54:02.960Z,99874.56
2022-09-10T15:59:09.729Z,99863.53
2022-09-10T16:04:15.122Z,99879.28
2022-09-10T16:09:21.310Z,99872.50
2022-09-10T16:14:26.732Z,99873.47
2022-09-10T16:19:32.048Z,99879.63
2022-09-10T16:24:37.692Z,99880.50
2022-09-10T16:29:43.789Z,99867.47
2022-09-10T16:34:47.483Z,99877.91
2022-09-10T16:39:53.313Z,99877.00
2022-09-10T16:44:57.863Z,99874.34
2022-09-10T16:50:02.184Z,99875.16
2022-09-10T16:55:09.044Z,99871.63
2022-09-10T17:00:17.875Z,99868.13
2022-09-10T17:05:24.138Z,99865.34
2022-09-10T17:10:30.506Z,99875.59
2022-09-10T17:15:34.075Z,99873.84
2022-09-10T17:20:40.408Z,99876.31
2022-09-10T17:25:46.970Z,99863.19
2022-09-10T17:30:56.790Z,99869.16
2022-09-10T17:36:04.470Z,99862.13
2022-09-10T17:41:10.236Z,99872.38
2022-09-10T17:46:15.926Z,99868.81
2022-09-10T17:51:21.817Z,99866.19
2022-09-10T17:56:28.197Z,99828.78
2022-09-10T18:01:34.858Z,99861.72
2022-09-10T18:06:39.645Z,99850.34
2022-09-10T18:11:46.136Z,99853.75
2022-09-10T18:16:51.534Z,99846.72
2022-09-10T18:21:55.966Z,99856.19
2022-09-10T18:27:05.433Z,99829.25
2022-09-10T18:32:09.961Z,99840.41
2022-09-10T18:37:14.734Z,99837.66
2022-09-10T18:42:20.309Z,99836.72
2022-09-10T18:47:43.749Z,99840.97
2022-09-10T18:52:48.570Z,99826.19
2022-09-10T18:57:53.674Z,99824.38
2022-09-10T19:02:57.149Z,99816.50
2022-09-10T19:08:00.781Z,99812.91
2022-09-10T19:13:06.193Z,99831.00
2022-09-10T19:18:10.211Z,99826.44
2022-09-10T19:23:19.634Z,99825.41
2022-09-10T19:28:26.068Z,99825.28
2022-09-10T19:33:29.616Z,99817.34
2022-09-10T19:38:37.906Z,99815.47
2022-09-10T19:43:42.915Z,99830.91
2022-09-10T19:48:48.560Z,99827.38
2022-09-10T19:53:51.957Z,99835.00
2022-09-10T19:58:58.703Z,99830.66
2022-09-10T20:04:05.063Z,99833.00
2022-09-10T20:09:11.782Z,99829.50
2022-09-10T20:14:16.712Z,99837.22
2022-09-10T20:19:22.735Z,99832.84
2022-09-10T20:24:27.995Z,99830.88
2022-09-10T20:29:32.979Z,99834.31
2022-09-10T20:34:36.843Z,99834.09
2022-09-10T20:39:42.848Z,99830.47
2022-09-10T20:44:47.571Z,99838.19
2022-09-10T20:49:51.010Z,99843.31
2022-09-10T20:54:55.660Z,99845.81
2022-09-10T21:00:01.291Z,99841.28
2022-09-10T21:05:14.872Z,99835.09
2022-09-10T21:10:20.259Z,99847.97
2022-09-10T21:15:25.318Z,99846.16
2022-09-10T21:20:29.282Z,99844.25
2022-09-10T21:25:34.655Z,99851.69
2022-09-10T21:30:40.167Z,99847.09
2022-09-10T21:35:44.470Z,99848.56
2022-09-10T21:40:57.353Z,99850.28
2022-09-10T21:46:04.729Z,99849.44
2022-09-10T21:51:11.721Z,99846.88
2022-09-10T21:56:18.806Z,99849.38
2022-09-10T22:01:26.726Z,99848.41
2022-09-10T22:06:32.250Z,99841.38
2022-09-10T22:11:38.686Z,99843.00
2022-09-10T22:16:44.815Z,99843.00
2022-09-10T22:21:48.990Z,99840.34
2022-09-10T22:26:52.416Z,99843.78
2022-09-10T22:31:58.070Z,99842.88
2022-09-10T22:37:03.370Z,99848.66
2022-09-10T22:42:08.359Z,99843.41
2022-09-10T22:47:13.929Z,99798.94
2022-09-10T22:52:17.307Z,99823.47
2022-09-10T22:57:21.348Z,99825.16
2022-09-10T23:02:26.070Z,99819.03
2022-09-10T23:07:30.136Z,99822.47
2022-09-10T23:12:34.806Z,99820.69
2022-09-10T23:17:40.885Z,99811.09
2022-09-10T23:22:44.245Z,99805.78
2022-09-10T23:27:51.273Z,99804.03
2022-09-10T23:32:56.258Z,99797.03
2022-09-10T23:38:00.429Z,99790.09
2022-09-10T23:43:03.790Z,99786.56
2022-09-10T23:48:09.417Z,99776.16
2022-09-10T23:53:12.806Z,99770.06
2022-09-10T23:58:17.909Z,99773.25
